Penngrove, California
Current Conditions -  °F | °C
As of 7:15 AM on Thursday 18 Dec 2014 (Local Time) from KDVO Reporting Station
Overcast Overcast  
Wind Chill: 50°   Ceiling: 800
Heat Index: 50°   Visibility: 8mi
Dew Point: 50°   Wind: 3mph
Humidity: 100%   Direction: 180°S
Pressure: 30.13"   Gusts: NA
Location:  38.3°N, 122.67°W
Report Text: KDVO 181515Z AUTO 18003KT 8SM OVC008 10/10 A3013 RMK AO2
Loading
Personal Weather Stations






























Interactive Weather Map New forecast layout! Learn more

10-Day Weather Forecast

Advertisements
Track Severe Weather on mobile